Time;durP1;ratioP1;P1;durP2;ratioP2;P2;SDS_P1;SDS_P2;PMS_P1;PMS_P2;Temp;Humidity;BMP_temperature;BMP_pressure;BME280_temperature;BME280_humidity;BME280_pressure;Samples;Min_cycle;Max_cycle;Signal;HPM_P1;HPM_P2
2021/03/26 00:00:35;;;;;;;4.63;2.17;;;10.20;71.90;;;;;;5073055;28;20029;-66
2021/03/26 00:03:01;;;;;;;17.73;2.53;;;10.20;71.70;;;;;;5073598;28;20484;-66
2021/03/26 00:05:27;;;;;;;3.90;1.67;;;10.20;71.80;;;;;;5073635;28;20103;-65
2021/03/26 00:07:53;;;;;;;5.75;2.55;;;10.20;72.10;;;;;;5072816;28;20039;-66
2021/03/26 00:10:19;;;;;;;4.95;2.33;;;10.20;71.90;;;;;;5073682;28;20112;-66
2021/03/26 00:12:45;;;;;;;4.90;2.35;;;10.10;72.10;;;;;;5054485;28;20047;-66
2021/03/26 00:15:11;;;;;;;7.53;2.20;;;10.10;71.90;;;;;;5072561;28;20024;-66
2021/03/26 00:17:37;;;;;;;8.43;2.92;;;10.10;71.90;;;;;;5073442;28;20048;-66
2021/03/26 00:20:05;;;;;;;8.32;2.33;;;10.20;71.80;;;;;;5072536;28;20081;-66
2021/03/26 00:22:30;;;;;;;4.65;2.63;;;10.10;71.90;;;;;;5073252;28;20037;-66
2021/03/26 00:24:56;;;;;;;9.13;2.88;;;10.10;71.70;;;;;;5073217;28;20027;-66
2021/03/26 00:27:21;;;;;;;9.35;2.95;;;10.10;71.70;;;;;;5072606;28;20043;-66
2021/03/26 00:29:47;;;;;;;9.18;3.28;;;10.10;71.60;;;;;;5072919;28;20054;-66
2021/03/26 00:32:13;;;;;;;10.02;2.83;;;10.10;71.70;;;;;;5073193;28;20032;-66
2021/03/26 00:34:38;;;;;;;12.95;2.90;;;10.10;71.80;;;;;;5072440;28;20129;-66
2021/03/26 00:37:05;;;;;;;7.50;2.60;;;10.00;71.90;;;;;;5073249;28;20032;-66
2021/03/26 00:39:30;;;;;;;6.70;2.72;;;10.00;71.90;;;;;;5073211;28;20048;-66
2021/03/26 00:41:56;;;;;;;5.43;2.15;;;10.00;72.00;;;;;;5072315;28;20068;-66
2021/03/26 00:44:22;;;;;;;2.17;1.33;;;10.00;72.10;;;;;;5072930;28;20107;-66
2021/03/26 00:46:48;;;;;;;9.27;3.25;;;10.00;72.30;;;;;;5072829;28;20035;-66
2021/03/26 00:49:14;;;;;;;8.02;2.67;;;9.90;72.10;;;;;;5072265;28;20025;-66
2021/03/26 00:51:40;;;;;;;11.57;3.05;;;9.90;72.10;;;;;;5072837;28;20021;-66
2021/03/26 00:54:07;;;;;;;9.43;3.00;;;9.90;72.10;;;;;;5072645;28;20495;-66
2021/03/26 00:56:33;;;;;;;10.85;3.17;;;9.90;72.10;;;;;;5072140;28;20043;-66
2021/03/26 00:58:59;;;;;;;6.80;3.58;;;9.80;72.00;;;;;;5072476;28;20032;-66
2021/03/26 01:01:25;;;;;;;14.57;3.53;;;9.80;72.00;;;;;;5072675;28;20020;-66
2021/03/26 01:03:50;;;;;;;8.15;3.17;;;9.80;72.10;;;;;;5071946;28;20028;-65
2021/03/26 01:06:17;;;;;;;7.78;3.00;;;9.80;72.70;;;;;;5072585;28;20032;-66
2021/03/26 01:08:43;;;;;;;13.77;2.95;;;9.80;72.10;;;;;;5054683;28;20037;-65
2021/03/26 01:11:21;;;;;;;5.43;2.72;;;9.80;72.10;;;;;;5053857;28;20025;-65
2021/03/26 01:13:48;;;;;;;11.02;3.20;;;9.80;72.10;;;;;;5072681;28;20120;-65
2021/03/26 01:16:17;;;;;;;11.20;3.28;;;9.80;72.20;;;;;;5071748;28;20024;-65
2021/03/26 01:18:45;;;;;;;12.63;3.47;;;9.80;72.30;;;;;;5054494;28;20068;-66
2021/03/26 01:21:19;;;;;;;12.75;3.10;;;9.80;72.10;;;;;;5054461;28;20020;-66
2021/03/26 01:23:47;;;;;;;10.65;3.13;;;9.80;72.10;;;;;;5053879;28;20033;-66
2021/03/26 01:26:13;;;;;;;12.23;3.45;;;9.70;72.10;;;;;;5074436;28;20510;-66
2021/03/26 01:28:46;;;;;;;10.23;4.00;;;9.80;72.20;;;;;;5058723;28;20109;-66
2021/03/26 01:31:29;;;;;;;4.32;2.05;;;9.80;72.20;;;;;;5057838;28;20059;-65
2021/03/26 01:33:55;;;;;;;12.00;3.80;;;9.80;72.40;;;;;;5058555;28;20391;-66
2021/03/26 01:36:24;;;;;;;10.68;2.85;;;9.80;72.30;;;;;;5058868;28;20039;-66
2021/03/26 01:38:53;;;;;;;14.60;3.72;;;9.80;72.40;;;;;;5075481;28;20043;-65
2021/03/26 01:41:28;;;;;;;7.97;2.78;;;9.80;72.40;;;;;;5058568;28;20119;-66
2021/03/26 01:43:54;;;;;;;7.72;2.83;;;9.80;72.50;;;;;;5077751;28;20028;-65
2021/03/26 01:46:22;;;;;;;9.70;3.40;;;9.80;72.50;;;;;;5077759;28;20020;-65
2021/03/26 01:48:54;;;;;;;11.57;2.88;;;9.80;72.60;;;;;;5071311;28;20042;-65
2021/03/26 01:51:28;;;;;;;10.65;3.88;;;9.70;72.50;;;;;;5071451;28;20027;-65
2021/03/26 01:53:55;;;;;;;3.60;2.08;;;9.70;72.60;;;;;;5090349;28;20028;-66
2021/03/26 01:56:27;;;;;;;7.68;2.90;;;9.70;72.70;;;;;;5062821;28;20115;-66
2021/03/26 01:59:11;;;;;;;10.40;3.50;;;9.70;72.80;;;;;;5082464;28;20182;-66
2021/03/26 02:01:46;;;;;;;7.97;3.33;;;9.70;72.90;;;;;;5075900;28;20025;-66
2021/03/26 02:04:28;;;;;;;9.02;3.50;;;9.60;72.90;;;;;;5057972;28;20036;-66
2021/03/26 02:06:58;;;;;;;4.47;1.70;;;9.60;72.90;;;;;;5057379;28;20047;-66
2021/03/26 02:09:34;;;;;;;10.88;3.42;;;9.60;73.10;;;;;;5071361;28;20487;-66
2021/03/26 02:12:07;;;;;;;9.75;3.45;;;9.60;73.70;;;;;;5071051;28;20020;-66
2021/03/26 02:14:42;;;;;;;;;;;9.60;73.20;;;;;;5057517;28;20024;-66
2021/03/26 02:17:14;;;;;;;11.27;4.47;;;9.60;73.40;;;;;;5074426;28;19934;-66
2021/03/26 02:20:08;;;;;;;3.03;1.58;;;9.60;73.20;;;;;;5074741;28;20380;-66
2021/03/26 02:22:35;;;;;;;10.32;2.53;;;9.60;73.50;;;;;;5066710;28;20126;-66
2021/03/26 02:25:03;;;;;;;12.52;3.28;;;9.60;73.50;;;;;;5061970;28;20071;-66
2021/03/26 02:27:32;;;;;;;9.95;3.22;;;9.60;73.50;;;;;;5074656;28;20020;-65
2021/03/26 02:30:26;;;;;;;7.03;2.90;;;9.60;73.50;;;;;;5071476;28;20491;-65
2021/03/26 02:32:52;;;;;;;9.18;3.33;;;9.50;73.50;;;;;;5067111;28;20178;-66
2021/03/26 02:35:21;;;;;;;6.72;1.98;;;9.60;73.60;;;;;;5060100;28;20028;-66
2021/03/26 02:37:56;;;;;;;4.90;2.05;;;9.50;73.60;;;;;;5056195;28;20040;-66
2021/03/26 02:40:35;;;;;;;7.68;2.50;;;9.60;73.80;;;;;;5056864;28;20055;-66
2021/03/26 02:43:33;;;;;;;4.82;2.30;;;9.50;73.80;;;;;;5057419;28;20432;-66
2021/03/26 02:46:16;;;;;;;5.45;1.88;;;9.50;73.80;;;;;;5071493;28;20040;-66
2021/03/26 02:48:47;;;;;;;5.95;2.60;;;9.50;73.90;;;;;;5078420;28;20028;-66
2021/03/26 02:51:35;;;;;;;7.25;2.70;;;9.50;73.90;;;;;;5057308;28;20085;-66
2021/03/26 02:54:22;;;;;;;7.03;1.63;;;9.50;73.90;;;;;;5074921;28;20035;-66
2021/03/26 02:57:00;;;;;;;5.88;2.20;;;9.50;74.00;;;;;;5084061;28;20028;-66
2021/03/26 02:59:38;;;;;;;7.10;3.00;;;9.50;74.10;;;;;;5059016;28;20028;-66
2021/03/26 03:02:06;;;;;;;1.13;0.93;;;9.60;74.00;;;;;;5074464;28;20059;-66
2021/03/26 03:05:01;;;;;;;1.00;0.98;;;9.60;74.10;;;;;;5056697;28;20085;-66
2021/03/26 03:07:31;;;;;;;2.45;1.45;;;9.60;74.30;;;;;;5056946;28;20032;-65
2021/03/26 03:10:37;;;;;;;5.63;2.70;;;9.60;74.20;;;;;;5074051;28;20081;-65
2021/03/26 03:13:47;;;;;;;8.32;3.35;;;9.60;74.10;;;;;;5074653;28;20017;-66
2021/03/26 03:16:26;;;;;;;3.67;1.15;;;9.60;74.20;;;;;;5073819;28;20027;-66
2021/03/26 03:18:59;;;;;;;8.40;2.20;;;9.60;74.20;;;;;;5056618;28;20093;-66
2021/03/26 03:21:39;;;;;;;10.57;2.58;;;9.60;74.20;;;;;;5056457;28;20095;-65
2021/03/26 03:24:14;;;;;;;6.60;2.30;;;9.60;74.20;;;;;;5055769;28;20511;-65
2021/03/26 03:27:05;;;;;;;6.65;2.35;;;9.60;74.20;;;;;;5056369;28;20070;-66
2021/03/26 03:30:10;;;;;;;10.27;2.47;;;9.60;74.40;;;;;;5056491;28;20033;-66
2021/03/26 03:33:01;;;;;;;3.58;1.38;;;9.60;74.40;;;;;;5041866;28;20475;-66
2021/03/26 03:35:53;;;;;;;1.35;1.17;;;9.60;74.30;;;;;;5056631;28;20031;-66
2021/03/26 03:38:54;;;;;;;7.38;2.25;;;9.60;74.40;;;;;;5055327;28;20037;-66
2021/03/26 03:41:28;;;;;;;8.32;2.75;;;9.70;74.40;;;;;;5056256;28;20033;-66
2021/03/26 03:44:13;;;;;;;3.30;1.90;;;9.70;74.30;;;;;;5055367;28;20024;-66
2021/03/26 03:46:44;;;;;;;2.47;1.67;;;9.70;74.40;;;;;;5055974;28;20039;-66
2021/03/26 03:49:44;;;;;;;6.80;2.65;;;9.70;74.70;;;;;;5055986;28;20025;-66
2021/03/26 03:52:24;;;;;;;7.35;3.05;;;9.70;74.40;;;;;;5055210;28;20025;-65
2021/03/26 03:55:14;;;;;;;9.10;3.40;;;9.70;74.30;;;;;;5073762;28;20040;-66
2021/03/26 03:57:56;;;;;;;8.75;3.10;;;9.70;74.30;;;;;;5069219;28;20488;-66
2021/03/26 04:00:27;;;;;;;3.22;1.33;;;9.70;74.30;;;;;;5055818;28;20024;-66
2021/03/26 04:03:08;;;;;;;4.63;2.25;;;9.70;74.30;;;;;;5055634;28;20035;-65
2021/03/26 04:05:42;;;;;;;5.82;2.85;;;9.70;74.30;;;;;;5072852;28;20025;-65
2021/03/26 04:08:37;;;;;;;11.73;2.90;;;9.80;74.30;;;;;;5073727;28;20059;-66
2021/03/26 04:11:15;;;;;;;7.85;3.05;;;9.80;74.30;;;;;;5073487;28;20056;-66
2021/03/26 04:13:47;;;;;;;5.55;2.53;;;9.70;74.30;;;;;;5072783;28;20475;-65
2021/03/26 04:16:17;;;;;;;9.55;3.83;;;9.70;74.30;;;;;;5055446;28;20020;-65
2021/03/26 04:18:51;;;;;;;11.20;3.90;;;9.70;74.30;;;;;;5073229;28;20559;-65
2021/03/26 04:21:41;;;;;;;9.38;3.95;;;9.70;74.30;;;;;;5055257;28;20116;-66
2021/03/26 04:24:22;;;;;;;;;;;9.80;74.40;;;;;;5055802;28;20044;-65
2021/03/26 04:27:34;;;;;;;4.22;2.15;;;9.70;74.40;;;;;;5072927;28;20272;-65
2021/03/26 04:30:24;;;;;;;5.57;2.40;;;9.80;74.60;;;;;;5055138;28;20476;-66
2021/03/26 04:32:58;;;;;;;9.43;3.72;;;9.80;74.80;;;;;;5054580;28;20021;-65
2021/03/26 04:35:27;;;;;;;4.30;2.60;;;9.70;74.90;;;;;;5055146;28;20024;-65
2021/03/26 04:38:23;;;;;;;15.48;5.38;;;9.70;74.90;;;;;;5068213;28;20036;-65
2021/03/26 04:41:28;;;;;;;10.90;4.93;;;9.70;75.00;;;;;;5072291;28;20036;-66
2021/03/26 04:44:05;;;;;;;11.50;4.10;;;9.80;75.00;;;;;;5072907;28;20115;-65
2021/03/26 04:46:39;;;;;;;10.88;5.60;;;9.80;75.00;;;;;;5055221;28;20480;-65
2021/03/26 04:49:36;;;;;;;12.88;4.97;;;9.80;75.00;;;;;;5072233;28;20028;-66
2021/03/26 04:52:12;;;;;;;10.45;5.32;;;9.80;75.10;;;;;;5054851;28;20059;-65
2021/03/26 04:54:50;;;;;;;;;;;9.80;75.10;;;;;;5072522;28;20158;-65
2021/03/26 04:57:52;;;;;;;10.23;5.10;;;9.80;75.10;;;;;;5086419;28;19916;-66
2021/03/26 05:00:27;;;;;;;12.20;4.15;;;9.80;75.00;;;;;;5054259;28;20029;-65
2021/03/26 05:03:10;;;;;;;5.88;3.92;;;9.80;75.10;;;;;;5072043;28;20419;-66
2021/03/26 05:05:44;;;;;;;11.27;4.43;;;9.80;75.20;;;;;;5067449;28;20394;-66
2021/03/26 05:08:18;;;;;;;12.98;6.13;;;9.80;75.20;;;;;;5067410;28;20130;-66
2021/03/26 05:11:05;;;;;;;13.02;5.53;;;9.80;75.20;;;;;;5072644;28;20610;-65
2021/03/26 05:13:58;;;;;;;9.65;3.80;;;9.80;75.10;;;;;;5054756;28;20040;-65
2021/03/26 05:16:53;;;;;;;19.63;7.97;;;9.80;75.20;;;;;;5069306;28;20356;-65
2021/03/26 05:20:19;;;;;;;9.77;5.65;;;9.90;75.20;;;;;;5068266;28;20041;-65
2021/03/26 05:23:19;;;;;;;17.85;7.68;;;9.80;75.10;;;;;;5086747;28;20474;-66
2021/03/26 05:26:04;;;;;;;12.43;5.65;;;9.80;75.10;;;;;;5090553;28;20047;-65
2021/03/26 05:28:41;;;;;;;25.48;8.10;;;9.80;75.20;;;;;;5072900;28;20028;-65
2021/03/26 05:31:32;;;;;;;17.20;6.22;;;9.80;75.20;;;;;;5067732;28;20134;-65
2021/03/26 05:34:10;;;;;;;3.70;2.90;;;9.80;75.40;;;;;;5073142;28;20454;-66
2021/03/26 05:36:41;;;;;;;22.00;8.45;;;9.80;75.40;;;;;;5088214;28;20036;-66
2021/03/26 05:39:45;;;;;;;7.65;4.10;;;9.80;75.70;;;;;;4990300;28;20060;-65
2021/03/26 05:42:54;;;;;;;23.90;9.50;;;9.70;75.60;;;;;;5085398;28;20051;-66
2021/03/26 05:45:36;;;;;;;19.40;8.10;;;9.80;75.80;;;;;;5087419;28;20032;-65
2021/03/26 05:48:41;;;;;;;18.70;9.55;;;9.80;75.80;;;;;;5055735;28;20044;-65
2021/03/26 05:51:23;;;;;;;13.45;6.55;;;9.90;75.80;;;;;;5055712;28;20024;-66
2021/03/26 05:54:19;;;;;;;16.67;6.00;;;9.90;75.80;;;;;;5067794;28;20082;-66
2021/03/26 05:57:23;;;;;;;18.42;9.60;;;9.90;76.30;;;;;;5067779;28;20036;-66
2021/03/26 06:00:39;;;;;;;12.30;3.92;;;10.00;75.50;;;;;;5080587;28;20045;-77
2021/03/26 06:03:37;;;;;;;17.52;7.10;;;10.00;75.20;;;;;;4960998;28;20118;-66
2021/03/26 06:06:59;;;;;;;17.25;8.18;;;10.00;75.10;;;;;;4904598;29;20489;-65
2021/03/26 06:10:24;;;;;;;7.15;3.28;;;10.00;75.10;;;;;;5085088;28;20043;-66
2021/03/26 06:13:17;;;;;;;14.82;7.18;;;10.00;75.10;;;;;;5078125;28;20036;-66
2021/03/26 06:16:30;;;;;;;14.30;5.07;;;10.00;75.10;;;;;;5048032;28;20040;-66
2021/03/26 06:19:33;;;;;;;11.38;3.75;;;10.00;75.10;;;;;;5082970;28;20043;-66
2021/03/26 06:23:09;;;;;;;16.92;8.25;;;10.00;75.20;;;;;;5054567;28;20097;-66
2021/03/26 06:26:01;;;;;;;9.65;4.70;;;10.00;75.50;;;;;;5089660;28;20442;-65
2021/03/26 06:28:37;;;;;;;11.50;5.22;;;10.00;75.60;;;;;;5072291;28;20025;-65
2021/03/26 06:31:40;;;;;;;23.58;9.27;;;9.90;75.70;;;;;;5081224;28;20025;-66
2021/03/26 06:35:01;;;;;;;6.40;3.20;;;10.00;76.10;;;;;;5075071;28;20036;-66
2021/03/26 06:37:27;;;;;;;14.68;6.95;;;9.90;76.10;;;;;;5075564;28;20446;-66
2021/03/26 06:40:07;;;;;;;6.53;4.10;;;9.90;76.40;;;;;;5082224;28;20183;-66
2021/03/26 06:42:43;;;;;;;15.40;5.28;;;9.90;76.60;;;;;;5089284;28;20263;-67
2021/03/26 06:45:18;;;;;;;12.68;5.03;;;9.90;76.90;;;;;;5095567;28;20058;-66
2021/03/26 06:48:05;;;;;;;10.35;5.78;;;9.80;77.00;;;;;;5097993;28;20471;-66
2021/03/26 06:50:54;;;;;;;15.48;7.53;;;9.80;77.20;;;;;;5086299;28;20063;-66
2021/03/26 06:53:47;;;;;;;11.45;5.30;;;9.80;77.40;;;;;;5088393;28;20058;-66
2021/03/26 06:56:13;;;;;;;13.70;6.28;;;9.90;77.50;;;;;;5087353;28;20059;-71
2021/03/26 06:59:11;;;;;;;17.58;9.13;;;9.80;77.60;;;;;;5091845;28;20072;-76
2021/03/26 07:01:59;;;;;;;17.02;5.35;;;9.80;77.80;;;;;;5052354;28;20024;-68
2021/03/26 07:05:02;;;;;;;11.85;5.95;;;9.90;78.00;;;;;;5079537;28;20024;-66
2021/03/26 07:08:02;;;;;;;21.75;10.07;;;9.90;78.10;;;;;;5055682;28;20062;-66
2021/03/26 07:10:48;;;;;;;16.10;8.20;;;9.90;78.30;;;;;;5077368;28;20452;-66
2021/03/26 07:13:38;;;;;;;10.98;4.95;;;9.90;78.30;;;;;;5077706;28;20031;-66
2021/03/26 07:16:45;;;;;;;19.15;8.95;;;10.00;78.40;;;;;;5079557;28;20391;-66
2021/03/26 07:19:30;;;;;;;21.48;8.55;;;10.00;78.70;;;;;;5059431;28;20064;-66
2021/03/26 07:22:46;;;;;;;7.93;4.57;;;10.00;78.80;;;;;;5077004;28;20063;-66
2021/03/26 07:25:46;;;;;;;19.75;7.28;;;10.00;78.70;;;;;;5053711;28;20087;-65
2021/03/26 07:28:36;;;;;;;26.17;7.70;;;10.00;78.90;;;;;;5079860;28;20035;-66
2021/03/26 07:31:07;;;;;;;15.93;6.70;;;10.10;79.30;;;;;;5077128;28;20041;-66
2021/03/26 07:33:41;;;;;;;9.25;4.78;;;10.00;79.60;;;;;;5085563;28;20024;-66
2021/03/26 07:36:27;;;;;;;16.35;6.00;;;10.10;79.60;;;;;;5086934;28;20060;-66
2021/03/26 07:39:22;;;;;;;12.25;5.75;;;10.10;79.70;;;;;;5074598;28;20306;-66
2021/03/26 07:42:12;;;;;;;14.50;6.57;;;10.10;80.10;;;;;;5033487;28;20096;-66
2021/03/26 07:45:03;;;;;;;16.58;6.95;;;10.10;80.10;;;;;;5093582;28;20028;-66
2021/03/26 07:48:00;;;;;;;22.90;10.85;;;10.10;80.40;;;;;;5086703;28;20078;-65
2021/03/26 07:50:31;;;;;;;13.45;5.60;;;10.10;80.80;;;;;;5069543;28;20080;-66
2021/03/26 07:53:11;;;;;;;14.48;6.25;;;10.20;80.70;;;;;;5074586;28;20033;-65
2021/03/26 07:55:43;;;;;;;13.77;7.25;;;10.20;81.00;;;;;;5087841;28;20028;-66
2021/03/26 07:58:36;;;;;;;13.82;6.28;;;10.20;81.10;;;;;;5085980;28;20438;-66
2021/03/26 08:01:20;;;;;;;16.95;8.68;;;10.20;81.20;;;;;;5076003;28;20082;-65
2021/03/26 08:04:01;;;;;;;14.63;5.82;;;10.20;81.20;;;;;;5092393;28;20043;-66
2021/03/26 08:06:46;;;;;;;14.80;6.05;;;10.30;81.30;;;;;;5088215;28;20046;-66
2021/03/26 08:09:35;;;;;;;13.93;8.13;;;10.20;81.40;;;;;;5082817;28;20378;-66
2021/03/26 08:12:35;;;;;;;16.00;6.47;;;10.30;81.50;;;;;;5080363;28;20438;-66
2021/03/26 08:15:23;;;;;;;10.80;6.07;;;10.30;81.50;;;;;;5089846;28;20024;-66
2021/03/26 08:18:00;;;;;;;13.88;6.57;;;10.40;81.60;;;;;;5087937;28;20040;-66
2021/03/26 08:20:44;;;;;;;13.30;5.82;;;10.40;81.80;;;;;;5081900;28;20028;-66
2021/03/26 08:23:10;;;;;;;;;;;10.40;81.90;;;;;;5086658;28;20028;-65
2021/03/26 08:26:02;;;;;;;17.73;8.07;;;10.40;82.00;;;;;;5075670;28;19916;-66
2021/03/26 08:28:33;;;;;;;13.77;6.35;;;10.40;82.20;;;;;;5058001;28;20047;-65
2021/03/26 08:31:02;;;;;;;12.38;5.15;;;10.50;82.50;;;;;;5091917;28;20028;-66
2021/03/26 08:33:46;;;;;;;18.98;6.53;;;10.40;82.50;;;;;;5091549;28;20032;-66
2021/03/26 08:36:32;;;;;;;11.75;4.85;;;10.50;82.70;;;;;;5089411;28;20027;-66
2021/03/26 08:39:49;;;;;;;20.63;9.05;;;10.50;82.70;;;;;;5088848;28;20032;-66
2021/03/26 08:42:34;;;;;;;15.25;7.65;;;10.50;82.70;;;;;;5043018;28;20036;-65
2021/03/26 08:45:12;;;;;;;10.43;5.53;;;10.60;82.70;;;;;;5089058;28;20036;-66
2021/03/26 08:47:41;;;;;;;18.02;7.22;;;10.70;82.60;;;;;;5089451;28;20024;-66
2021/03/26 08:50:27;;;;;;;17.13;9.43;;;10.70;82.70;;;;;;5090744;28;20028;-66
2021/03/26 08:53:26;;;;;;;20.35;9.05;;;10.70;82.70;;;;;;5080768;28;20032;-65
2021/03/26 08:56:10;;;;;;;22.88;10.75;;;10.80;82.80;;;;;;5091052;28;20155;-66
2021/03/26 08:58:57;;;;;;;17.73;10.30;;;10.80;82.60;;;;;;5090068;28;20552;-65
2021/03/26 09:01:53;;;;;;;22.48;9.00;;;10.80;82.50;;;;;;5090464;28;20028;-66
2021/03/26 09:04:57;;;;;;;12.02;5.43;;;10.90;82.30;;;;;;5086884;28;20505;-67
2021/03/26 09:07:48;;;;;;;20.23;9.30;;;11.00;82.20;;;;;;5072826;28;20330;-66
2021/03/26 09:11:00;;;;;;;11.63;6.47;;;11.00;82.30;;;;;;5098289;28;20108;-66
2021/03/26 09:13:49;;;;;;;18.95;9.98;;;11.10;82.30;;;;;;5075206;28;20173;-66
2021/03/26 09:16:23;;;;;;;22.20;9.45;;;11.10;82.30;;;;;;5077082;28;20455;-66
2021/03/26 09:19:17;;;;;;;17.95;8.68;;;11.10;82.20;;;;;;5075178;28;20043;-66
2021/03/26 09:21:59;;;;;;;;;;;11.20;82.30;;;;;;5074929;28;20094;-66
2021/03/26 09:24:40;;;;;;;8.05;4.38;;;11.30;82.20;;;;;;5077405;28;19908;-66
2021/03/26 09:27:22;;;;;;;23.20;6.18;;;11.30;82.00;;;;;;5075142;28;20032;-66
2021/03/26 09:30:09;;;;;;;14.15;7.22;;;11.30;82.10;;;;;;5076887;28;20031;-66
2021/03/26 09:32:47;;;;;;;16.35;8.10;;;11.40;82.10;;;;;;5090959;28;20031;-66
2021/03/26 09:35:29;;;;;;;14.68;8.25;;;11.40;82.00;;;;;;5086848;28;20024;-66
2021/03/26 09:38:05;;;;;;;9.98;4.50;;;11.40;82.00;;;;;;5088591;28;20591;-66
2021/03/26 09:40:57;;;;;;;16.77;6.88;;;11.50;82.20;;;;;;5086079;28;20059;-66
2021/03/26 09:43:33;;;;;;;9.80;6.15;;;11.50;82.40;;;;;;5088995;28;20140;-66
2021/03/26 09:45:59;;;;;;;10.10;5.32;;;11.50;82.50;;;;;;5091354;28;20024;-66
2021/03/26 09:49:01;;;;;;;28.00;12.70;;;11.50;82.60;;;;;;5095207;28;20104;-66
2021/03/26 09:51:38;;;;;;;13.77;5.93;;;11.50;82.80;;;;;;5082083;28;20046;-66
2021/03/26 09:54:35;;;;;;;21.50;10.00;;;11.50;82.70;;;;;;5091839;28;20027;-66
2021/03/26 09:57:30;;;;;;;10.88;5.72;;;11.60;82.80;;;;;;5093047;28;20118;-66
2021/03/26 10:00:17;;;;;;;17.88;7.75;;;11.60;82.80;;;;;;5092116;28;20489;-66
2021/03/26 10:02:56;;;;;;;18.23;7.72;;;11.70;82.80;;;;;;5088229;28;20071;-65
2021/03/26 10:05:30;;;;;;;26.13;8.35;;;11.70;82.80;;;;;;5090128;28;20062;-65
2021/03/26 10:11:26;;;;;;;11.43;5.57;;;11.80;83.00;;;;;;5089051;28;20456;-66
2021/03/26 10:14:00;;;;;;;11.43;6.07;;;11.80;83.00;;;;;;5093388;28;20430;-66
2021/03/26 10:17:03;;;;;;;15.27;7.43;;;11.90;83.20;;;;;;5092329;28;20463;-66
2021/03/26 10:19:37;;;;;;;20.88;9.00;;;11.90;83.20;;;;;;5092783;28;20479;-66
2021/03/26 10:22:24;;;;;;;22.80;8.75;;;12.00;83.90;;;;;;5093241;28;20031;-66
2021/03/26 10:24:59;;;;;;;17.25;8.88;;;12.00;83.20;;;;;;5089363;28;20059;-66
2021/03/26 10:27:32;;;;;;;8.00;4.45;;;12.10;83.30;;;;;;5092610;28;20024;-66
2021/03/26 10:30:13;;;;;;;13.88;6.85;;;12.10;83.30;;;;;;5089626;28;20025;-66
2021/03/26 10:32:39;;;;;;;10.00;5.15;;;12.20;83.40;;;;;;5090457;28;20047;-66
2021/03/26 10:35:31;;;;;;;15.48;7.13;;;12.30;83.60;;;;;;5089880;28;20033;-66
2021/03/26 10:38:05;;;;;;;17.73;6.63;;;12.30;83.60;;;;;;5084476;28;20391;-66
2021/03/26 10:40:36;;;;;;;13.07;7.18;;;12.30;83.50;;;;;;5084661;28;20365;-67
2021/03/26 10:43:12;;;;;;;15.10;6.25;;;12.40;83.60;;;;;;5089964;28;20116;-65
2021/03/26 10:45:46;;;;;;;9.80;5.05;;;12.40;83.60;;;;;;5076447;28;20067;-67
2021/03/26 10:48:42;;;;;;;8.75;4.35;;;12.40;83.60;;;;;;5080949;28;20031;-66
2021/03/26 10:51:26;;;;;;;16.85;6.65;;;12.50;83.60;;;;;;5091823;28;20032;-66
2021/03/26 10:54:05;;;;;;;25.55;5.93;;;12.60;83.50;;;;;;5092519;28;20076;-66
2021/03/26 10:56:51;;;;;;;12.27;6.05;;;12.60;83.50;;;;;;5086424;28;20024;-67
2021/03/26 10:59:36;;;;;;;20.25;5.63;;;12.70;83.50;;;;;;5075486;28;20094;-66
2021/03/26 11:02:20;;;;;;;15.80;7.55;;;12.80;83.50;;;;;;5074327;28;20040;-65
2021/03/26 11:04:52;;;;;;;18.35;9.15;;;12.80;83.30;;;;;;5074749;28;20373;-66
2021/03/26 11:07:24;;;;;;;11.90;6.55;;;12.90;83.00;;;;;;5081895;28;20028;-65
2021/03/26 11:10:02;;;;;;;6.55;3.95;;;13.00;83.10;;;;;;5080572;28;20360;-66
2021/03/26 11:12:36;;;;;;;10.32;4.93;;;13.10;83.20;;;;;;5074667;28;20488;-66
2021/03/26 11:15:14;;;;;;;13.38;6.50;;;13.10;83.00;;;;;;5077138;28;20028;-66
2021/03/26 11:17:59;;;;;;;11.70;5.65;;;13.10;82.80;;;;;;5077777;28;20036;-66
2021/03/26 11:20:58;;;;;;;10.35;5.10;;;13.20;82.70;;;;;;5088662;28;20138;-66
2021/03/26 11:23:31;;;;;;;15.52;6.93;;;13.20;82.80;;;;;;5080744;28;20024;-66
2021/03/26 11:26:09;;;;;;;11.15;5.57;;;13.30;82.80;;;;;;5077666;28;20024;-66
2021/03/26 11:28:42;;;;;;;9.25;4.85;;;13.30;82.60;;;;;;5078752;28;20024;-65
2021/03/26 11:31:13;;;;;;;;;;;13.40;82.60;;;;;;5074282;28;20085;-65
2021/03/26 11:33:48;;;;;;;9.13;3.80;;;13.40;82.60;;;;;;5091476;28;20420;-66
2021/03/26 11:36:52;;;;;;;19.30;4.97;;;13.40;82.30;;;;;;5089409;28;20107;-66
2021/03/26 11:39:50;;;;;;;13.52;5.32;;;13.50;82.40;;;;;;5086948;28;20040;-67
2021/03/26 11:42:15;;;;;;;12.27;5.40;;;13.50;82.10;;;;;;5082898;28;20020;-65
2021/03/26 11:45:13;;;;;;;16.50;7.15;;;13.50;81.70;;;;;;5090760;28;20365;-67
2021/03/26 11:47:43;;;;;;;6.70;3.90;;;13.60;81.80;;;;;;5059684;28;20040;-67
2021/03/26 11:50:38;;;;;;;8.77;4.65;;;13.60;81.10;;;;;;5092836;28;20024;-67
2021/03/26 11:53:14;;;;;;;11.18;5.03;;;13.60;80.50;;;;;;5087526;28;20047;-68
2021/03/26 11:55:49;;;;;;;13.63;4.30;;;13.70;79.90;;;;;;5062958;28;20046;-64
2021/03/26 11:58:27;;;;;;;8.77;3.85;;;13.70;79.70;;;;;;5092410;28;20048;-66
2021/03/26 12:00:58;;;;;;;7.45;3.63;;;13.80;79.70;;;;;;5091393;28;20028;-65
2021/03/26 12:03:51;;;;;;;11.77;5.55;;;13.90;79.50;;;;;;5077912;28;20032;-65
2021/03/26 12:06:38;;;;;;;8.32;4.50;;;13.90;78.70;;;;;;5072427;28;20027;-65
2021/03/26 12:09:28;;;;;;;11.18;3.85;;;13.90;77.30;;;;;;5092131;28;20147;-67
2021/03/26 12:12:12;;;;;;;3.53;1.65;;;14.00;77.50;;;;;;5086109;28;20068;-66
2021/03/26 12:15:05;;;;;;;10.55;5.15;;;14.10;77.50;;;;;;5090288;28;20093;-66
2021/03/26 12:17:39;;;;;;;7.63;3.53;;;14.20;77.90;;;;;;5083118;28;20031;-64
2021/03/26 12:20:17;;;;;;;7.90;4.53;;;14.20;77.90;;;;;;5082208;28;20058;-64
2021/03/26 12:23:05;;;;;;;16.75;4.53;;;14.30;77.70;;;;;;5088020;28;20032;-64
2021/03/26 12:25:59;;;;;;;7.38;3.10;;;14.40;77.70;;;;;;5086797;28;20383;-64
2021/03/26 12:28:39;;;;;;;;;;;14.40;76.90;;;;;;5079172;28;20032;-63
2021/03/26 12:31:23;;;;;;;10.80;4.53;;;14.50;77.00;;;;;;5084393;28;20271;-65
2021/03/26 12:33:54;;;;;;;;;;;14.60;76.60;;;;;;5086873;28;20031;-65
2021/03/26 12:36:32;;;;;;;20.30;6.07;;;14.50;76.00;;;;;;5091734;28;20343;-65
2021/03/26 12:39:09;;;;;;;7.47;3.00;;;14.50;76.20;;;;;;5079050;28;20395;-64
2021/03/26 12:41:51;;;;;;;9.20;3.40;;;14.60;76.50;;;;;;5079233;28;20020;-65
2021/03/26 12:44:23;;;;;;;19.63;6.15;;;14.60;76.70;;;;;;5075407;28;20051;-64
2021/03/26 12:46:54;;;;;;;7.90;4.15;;;14.70;76.30;;;;;;5083364;28;20028;-65
2021/03/26 12:49:49;;;;;;;8.82;3.90;;;14.80;76.60;;;;;;5084167;28;20495;-65
2021/03/26 12:52:41;;;;;;;11.23;5.90;;;14.80;76.40;;;;;;5068092;28;20039;-65
2021/03/26 12:55:41;;;;;;;9.50;4.55;;;14.80;75.90;;;;;;5077468;28;20429;-64
2021/03/26 12:58:42;;;;;;;7.47;2.75;;;14.90;75.40;;;;;;5070988;28;20045;-65
2021/03/26 13:01:19;;;;;;;8.70;4.03;;;14.90;76.00;;;;;;5062969;28;20119;-64
2021/03/26 13:04:04;;;;;;;11.25;4.63;;;15.00;75.50;;;;;;5071985;28;20024;-66
2021/03/26 13:06:35;;;;;;;13.18;4.15;;;15.00;74.30;;;;;;5087724;28;20032;-63
2021/03/26 13:09:38;;;;;;;10.82;5.50;;;15.00;74.70;;;;;;5086644;28;20032;-64
2021/03/26 13:12:09;;;;;;;9.18;4.13;;;15.10;74.80;;;;;;5089176;28;20052;-63
2021/03/26 13:14:50;;;;;;;9.30;4.10;;;15.10;75.00;;;;;;5088616;28;20395;-65
2021/03/26 13:17:24;;;;;;;9.77;3.67;;;15.20;74.50;;;;;;5086565;28;20040;-64
2021/03/26 13:19:50;;;;;;;11.60;4.35;;;15.20;74.30;;;;;;5084091;28;20043;-65
2021/03/26 13:22:27;;;;;;;7.53;4.03;;;15.20;73.20;;;;;;5091979;28;20103;-64
2021/03/26 13:25:08;;;;;;;5.93;3.25;;;15.20;72.80;;;;;;5087877;28;20131;-64
2021/03/26 13:27:56;;;;;;;5.47;2.20;;;15.20;72.80;;;;;;5080557;28;20036;-64
2021/03/26 13:30:24;;;;;;;8.88;3.58;;;15.20;73.30;;;;;;5081523;28;20494;-64
2021/03/26 13:32:59;;;;;;;10.52;3.58;;;15.30;72.90;;;;;;5090089;28;20032;-64
2021/03/26 13:35:31;;;;;;;11.93;3.33;;;15.30;73.10;;;;;;5087638;28;20043;-64
2021/03/26 13:38:04;;;;;;;7.53;2.45;;;15.30;71.90;;;;;;5088427;28;20024;-64
2021/03/26 13:40:39;;;;;;;5.57;3.10;;;15.30;72.30;;;;;;5086858;28;20028;-65
2021/03/26 13:43:15;;;;;;;9.88;2.88;;;15.30;72.30;;;;;;5088386;28;20036;-65
2021/03/26 13:46:07;;;;;;;8.85;2.80;;;15.40;72.80;;;;;;5090072;28;20030;-64
2021/03/26 13:48:43;;;;;;;5.28;2.35;;;15.40;72.70;;;;;;5081579;28;20502;-64
2021/03/26 13:51:10;;;;;;;4.88;2.42;;;15.40;71.60;;;;;;5086259;28;20544;-64
2021/03/26 13:53:46;;;;;;;11.38;2.72;;;15.50;71.40;;;;;;5086493;28;20425;-65
2021/03/26 13:56:24;;;;;;;4.68;2.38;;;15.40;70.50;;;;;;5087805;28;20074;-65
2021/03/26 13:58:54;;;;;;;5.57;2.38;;;15.50;70.40;;;;;;5089447;28;20048;-65
2021/03/26 14:01:28;;;;;;;3.88;2.22;;;15.50;71.00;;;;;;5086402;28;20097;-66
2021/03/26 14:04:15;;;;;;;4.25;2.28;;;15.50;70.90;;;;;;5085744;28;20414;-65
2021/03/26 14:07:02;;;;;;;5.18;2.13;;;15.60;71.00;;;;;;5081242;28;20032;-65